BIENTÔT MET'MAP
version 2.0 !

Prévue avant fin octobre,
la nouvelle version sera
plus belle, plus complète
et hébergée sur un serveur
3 fois plus puissant...
et toujours gratuite !


Pas compatible ?
Essayez la version Mobile !

SE CONNECTER : | S'inscrire | Disclaimer | Découvrir Orbifly |
Code OACI :
Lgende : VFR VFR Marginal IFR IFR Intensif IFR Trs Intensif
Visi :
Plafond :
>= 8 km
>= 3000ft
5 8 km
1000 3000 ft
1500m 5 km
500 1000 ft
800 1500m
200 500 ft
< 800m
< 200 ft

METAR - LIED Decimomannu Air Base - 01 Dec 2020 18:30 UTC
Data Sources :     NOAA   


- Altitude de l'aérodrome : 100 ft
- Code IATA : DCI
- Pas de NOTAMs connus.


LIED - Decimomannu Air Base

Dernier METAR connu : 2015/08/11 07:55 LIED 110755Z 34012KT 9999 SCT018 24/21 Q1011 RMK SCT SCT200 VIS MIN 9999 WIND THR35 33012KT WIND THR17 33012KT BLU
TAF TAF LIED
Valide du 01 à 15h jusqu'au 02 à 00h UTC


011400Z 0115/0124 33012KT 9999 FEW020 SCT030
BECMG 0117/0119 27006KT

Source NOAA


MET'MAP, la Météo Aéronautique d'un coup d'oeil ! - Copyright ORBIFLY Décembre 2007

Développement & Programmation : Alexandra Zaïnal
Co-Développement : Marc-Olivier Méhu
Soutien technique & logistique : Manuel Goepfert
Conception & Financement : Baudouin d'Aumeries